Terminal Aerodrome Forecast
Issued by NWS Goodland, KS

Home | Current Version | Previous Version | Text Only | Print | Product List | Glossary On
Versions: 1 2 3 4 5 6 7 8 9 10 11 12 13 14 15 16 17 18 19 20 21 22 23 24 25
574
FTUS43 KGLD 300523
TAFGLD
TAF
KGLD 300523Z 3006/0106 02020G30KT 3SM -SN BKN025
     FM300900 36025G35KT 1 1/2SM -SN OVC015
     FM301400 35035G45KT 1SM -SN BLSN OVC010
     FM301600 35040G52KT 1/2SM -SN BLSN OVC005
     FM302100 35035G45KT 3SM -SN BLSN OVC010
     FM010000 34020G30KT P6SM BKN035=

USA.gov is the U.S. government's official web portal to all federal, state and local government web resources and services.